createdAt,value
2023-02-19T00:01:03.795Z,101223.09
2023-02-19T00:04:17.627Z,101231.00
2023-02-19T00:07:19.188Z,101226.63
2023-02-19T00:10:20.789Z,101227.50
2023-02-19T00:13:22.395Z,101219.59
2023-02-19T00:16:29.592Z,101218.72
2023-02-19T00:19:31.333Z,101225.78
2023-02-19T00:22:32.889Z,101226.63
2023-02-19T00:25:37.877Z,101221.38
2023-02-19T00:28:39.916Z,101225.84
2023-02-19T00:31:41.650Z,101233.00
2023-02-19T00:34:43.337Z,101228.66
2023-02-19T00:37:44.900Z,101227.88
2023-02-19T00:40:46.445Z,101233.19
2023-02-19T00:44:06.478Z,101228.94
2023-02-19T00:47:08.002Z,101221.88
2023-02-19T00:50:09.726Z,101229.81
2023-02-19T00:53:11.314Z,101220.16
2023-02-19T00:56:13.017Z,101211.44
2023-02-19T00:59:15.404Z,101215.09
2023-02-19T01:02:17.024Z,101213.50
2023-02-19T01:05:18.703Z,101225.09
2023-02-19T01:08:20.639Z,101225.13
2023-02-19T01:11:22.180Z,101234.78
2023-02-19T01:14:23.798Z,101225.13
2023-02-19T01:17:25.398Z,101223.53
2023-02-19T01:20:27.252Z,101231.53
2023-02-19T01:23:28.826Z,101234.22
2023-02-19T01:26:32.187Z,101239.50
2023-02-19T01:29:33.932Z,101241.19
2023-02-19T01:32:35.466Z,101225.28
2023-02-19T01:35:40.472Z,101233.28
2023-02-19T01:38:42.377Z,101234.19
2023-02-19T01:41:43.951Z,101238.56
2023-02-19T01:44:45.435Z,101248.22
2023-02-19T01:47:52.597Z,101243.91
2023-02-19T01:50:59.888Z,101236.88
2023-02-19T01:54:05.030Z,101238.69
2023-02-19T01:57:11.587Z,101238.78
2023-02-19T02:00:15.896Z,101241.59
2023-02-19T02:03:19.326Z,101248.63
2023-02-19T02:06:27.952Z,101244.22
2023-02-19T02:09:49.615Z,101243.38
2023-02-19T02:12:56.267Z,101253.91
2023-02-19T02:16:14.094Z,101241.69
2023-02-19T02:19:46.344Z,101248.03
2023-02-19T02:22:57.533Z,101248.28
2023-02-19T02:26:20.285Z,101247.50
2023-02-19T02:29:38.884Z,101247.59
2023-02-19T02:32:58.698Z,101243.28
2023-02-19T02:36:16.997Z,101239.94
2023-02-19T02:39:22.483Z,101251.56
2023-02-19T02:42:29.920Z,101245.53
2023-02-19T02:45:36.228Z,101240.38
2023-02-19T02:48:56.379Z,101243.16
2023-02-19T02:52:20.902Z,101246.84
2023-02-19T02:55:22.657Z,101255.72
2023-02-19T02:58:25.673Z,101254.84
2023-02-19T03:01:55.086Z,101268.00
2023-02-19T03:05:36.283Z,101271.53
2023-02-19T03:08:42.011Z,101274.16
2023-02-19T03:12:07.802Z,101263.53
2023-02-19T03:15:32.669Z,101274.94
2023-02-19T03:18:55.907Z,101275.84
2023-02-19T03:22:01.734Z,101274.94
2023-02-19T03:25:37.389Z,101286.34
2023-02-19T03:29:00.586Z,101303.84
2023-02-19T03:32:10.509Z,101299.41
2023-02-19T03:35:18.713Z,101301.13
2023-02-19T03:38:34.025Z,101311.59
2023-02-19T03:41:56.002Z,101310.66
2023-02-19T03:45:25.704Z,101323.78
2023-02-19T03:48:34.955Z,101324.63
2023-02-19T03:51:50.950Z,101322.94
2023-02-19T03:55:14.549Z,101324.63
2023-02-19T03:58:28.459Z,101331.66
2023-02-19T04:02:15.065Z,101339.53
2023-02-19T04:05:29.608Z,101350.97
2023-02-19T04:08:34.858Z,101358.00
2023-02-19T04:11:38.715Z,101372.94
2023-02-19T04:14:50.460Z,101372.94
2023-02-19T04:18:10.815Z,101389.63
2023-02-19T04:21:14.601Z,101388.72
2023-02-19T04:24:25.105Z,101391.38
2023-02-19T04:27:27.046Z,101394.00
2023-02-19T04:30:28.795Z,101400.09
2023-02-19T04:33:30.357Z,101410.66
2023-02-19T04:36:32.891Z,101418.56
2023-02-19T04:39:34.845Z,101426.53
2023-02-19T04:42:36.401Z,101417.75
2023-02-19T04:45:38.502Z,101416.88
2023-02-19T04:48:40.022Z,101425.66
2023-02-19T04:51:41.578Z,101425.63
2023-02-19T04:54:43.125Z,101429.09
2023-02-19T04:57:44.651Z,101433.53
2023-02-19T05:00:46.195Z,101444.06
2023-02-19T05:03:47.744Z,101457.25
2023-02-19T05:06:49.840Z,101460.72
2023-02-19T05:09:51.356Z,101459.91
2023-02-19T05:12:57.556Z,101462.53
2023-02-19T05:16:02.490Z,101480.06
2023-02-19T05:19:04.079Z,101482.69
2023-02-19T05:22:05.628Z,101486.25
2023-02-19T05:25:07.337Z,101488.88
2023-02-19T05:28:17.750Z,101496.78
2023-02-19T05:31:20.272Z,101503.00
2023-02-19T05:34:21.874Z,101517.97
2023-02-19T05:37:23.451Z,101518.03
2023-02-19T05:40:24.954Z,101520.69
2023-02-19T05:43:26.490Z,101535.63
2023-02-19T05:46:29.902Z,101539.22
2023-02-19T05:49:31.526Z,101541.84
2023-02-19T05:52:33.234Z,101540.16
2023-02-19T05:55:36.266Z,101556.84
2023-02-19T05:58:37.851Z,101555.06
2023-02-19T06:01:39.432Z,101559.53
2023-02-19T06:04:40.965Z,101558.66
2023-02-19T06:07:43.018Z,101561.38
2023-02-19T06:10:44.584Z,101564.09
2023-02-19T06:13:46.660Z,101568.53
2023-02-19T06:16:48.191Z,101565.03
2023-02-19T06:19:49.914Z,101565.16
2023-02-19T06:22:52.024Z,101575.72
2023-02-19T06:25:53.563Z,101593.34
2023-02-19T06:28:55.114Z,101585.44
2023-02-19T06:31:56.702Z,101598.88
2023-02-19T06:34:58.326Z,101603.63
2023-02-19T06:37:59.870Z,101613.31
2023-02-19T06:41:02.903Z,101628.41
2023-02-19T06:44:04.599Z,101618.13
2023-02-19T06:47:06.151Z,101628.03
2023-02-19T06:50:07.998Z,101641.44
2023-02-19T06:53:11.440Z,101658.38
2023-02-19T06:56:26.041Z,101664.75
2023-02-19T06:59:27.654Z,101670.22
2023-02-19T07:02:29.533Z,101677.44
2023-02-19T07:05:31.660Z,101684.56
2023-02-19T07:08:33.648Z,101691.63
2023-02-19T07:11:38.168Z,101702.97
2023-02-19T07:14:39.691Z,101709.00
2023-02-19T07:17:41.215Z,101716.13
2023-02-19T07:20:42.770Z,101715.78
2023-02-19T07:23:45.559Z,101722.75
2023-02-19T07:26:47.241Z,101729.84
2023-02-19T07:29:48.751Z,101737.03
2023-02-19T07:32:50.289Z,101738.03
2023-02-19T07:35:51.830Z,101753.97
2023-02-19T07:38:57.855Z,101763.72
2023-02-19T07:41:59.399Z,101760.28
2023-02-19T07:45:00.923Z,101762.97
2023-02-19T07:48:02.555Z,101761.25
2023-02-19T07:51:06.584Z,101763.97
2023-02-19T07:54:08.390Z,101762.22
2023-02-19T07:57:09.922Z,101773.56
2023-02-19T08:00:11.952Z,101772.50
2023-02-19T08:03:13.550Z,101764.41
2023-02-19T08:06:15.086Z,101767.78
2023-02-19T08:09:16.610Z,101762.41
2023-02-19T08:12:36.681Z,101757.84
2023-02-19T08:15:38.221Z,101759.31
2023-02-19T08:18:39.799Z,101775.84
2023-02-19T08:21:41.344Z,101774.78
2023-02-19T08:24:45.056Z,101789.59
2023-02-19T08:27:46.604Z,101791.22
2023-02-19T08:30:48.535Z,101792.91
2023-02-19T08:33:50.173Z,101806.84
2023-02-19T08:36:51.706Z,101817.31
2023-02-19T08:39:53.210Z,101811.09
2023-02-19T08:42:54.793Z,101819.72
2023-02-19T08:45:56.498Z,101814.41
2023-02-19T08:48:58.235Z,101818.72
2023-02-19T08:51:59.885Z,101824.81
2023-02-19T08:55:02.886Z,101831.78
2023-02-19T08:58:04.528Z,101830.91
2023-02-19T09:01:11.533Z,101844.84
2023-02-19T09:04:14.927Z,101850.13
2023-02-19T09:07:17.395Z,101844.72
2023-02-19T09:10:18.960Z,101857.91
2023-02-19T09:13:20.470Z,101859.53
2023-02-19T09:16:22.231Z,101878.00
2023-02-19T09:19:23.796Z,101893.78
2023-02-19T09:22:25.334Z,101891.88
2023-02-19T09:25:26.991Z,101897.81
2023-02-19T09:28:28.845Z,101897.59
2023-02-19T09:31:30.678Z,101903.50
2023-02-19T09:34:32.269Z,101914.50
2023-02-19T09:37:34.271Z,101934.19
2023-02-19T09:40:37.603Z,101942.53
2023-02-19T09:43:39.126Z,101947.53
2023-02-19T09:46:52.545Z,101969.25
2023-02-19T09:50:16.227Z,101967.22
2023-02-19T09:53:29.313Z,101964.28
2023-02-19T09:56:31.372Z,101969.44
2023-02-19T10:00:25.721Z,101979.06
2023-02-19T10:03:41.424Z,101983.44
2023-02-19T10:06:43.494Z,101979.72
2023-02-19T10:09:53.073Z,101988.22
2023-02-19T10:13:00.135Z,101980.81
2023-02-19T10:16:05.249Z,101983.25
2023-02-19T10:19:11.759Z,101983.69
2023-02-19T10:22:13.480Z,101976.28
2023-02-19T10:25:16.608Z,101963.50
2023-02-19T10:28:22.128Z,101966.50
2023-02-19T10:31:25.286Z,101965.44
2023-02-19T10:34:26.915Z,101966.34
2023-02-19T10:37:29.363Z,101976.13
2023-02-19T10:40:30.931Z,101990.09
2023-02-19T10:43:37.374Z,102000.19
2023-02-19T10:46:45.558Z,102016.47
2023-02-19T10:49:49.406Z,102017.75
2023-02-19T10:52:57.120Z,102035.81
2023-02-19T10:56:09.191Z,102034.56
2023-02-19T10:59:29.387Z,102034.31
2023-02-19T11:02:31.939Z,102042.00
2023-02-19T11:05:35.021Z,102046.22
2023-02-19T11:08:50.557Z,102043.47
2023-02-19T11:11:54.320Z,102055.94
2023-02-19T11:14:56.156Z,102047.00
2023-02-19T11:18:25.932Z,102034.41
2023-02-19T11:21:33.161Z,102038.59
2023-02-19T11:24:37.614Z,102028.75
2023-02-19T11:28:08.061Z,102026.97
2023-02-19T11:31:25.095Z,102030.31
2023-02-19T11:34:35.104Z,102038.00
2023-02-19T11:37:36.710Z,102037.59
2023-02-19T11:40:38.258Z,102040.75
2023-02-19T11:43:53.151Z,102028.25
2023-02-19T11:47:32.368Z,102032.75
2023-02-19T11:51:15.153Z,102034.25
2023-02-19T11:54:42.208Z,102032.34
2023-02-19T11:57:50.413Z,102032.13
2023-02-19T12:01:21.064Z,102033.78
2023-02-19T12:04:53.080Z,102044.41
2023-02-19T12:08:32.268Z,102045.25
2023-02-19T12:12:09.426Z,102050.44
2023-02-19T12:15:20.223Z,102062.66
2023-02-19T12:18:55.742Z,102053.59
2023-02-19T12:22:14.353Z,102050.63
2023-02-19T12:25:33.435Z,102052.97
2023-02-19T12:28:45.283Z,102042.28
2023-02-19T12:32:05.214Z,102037.13
2023-02-19T12:35:35.757Z,102048.03
2023-02-19T12:39:02.751Z,102037.53
2023-02-19T12:42:25.738Z,102046.59
2023-02-19T12:45:36.463Z,102041.25
2023-02-19T12:48:53.504Z,102041.94
2023-02-19T12:52:03.310Z,102055.06
2023-02-19T12:55:22.642Z,102048.84
2023-02-19T12:58:41.382Z,102063.72
2023-02-19T13:01:52.909Z,102057.47
2023-02-19T13:05:01.228Z,102047.63
2023-02-19T13:08:07.834Z,102042.22
2023-02-19T13:11:16.428Z,102047.59
2023-02-19T13:14:45.180Z,102029.91
2023-02-19T13:17:58.659Z,102029.91
2023-02-19T13:21:02.689Z,102030.97
2023-02-19T13:24:09.334Z,102040.06
2023-02-19T13:27:13.759Z,102042.09
2023-02-19T13:30:49.734Z,102048.75
2023-02-19T13:34:02.128Z,102055.19
2023-02-19T13:37:04.350Z,102052.84
2023-02-19T13:40:39.431Z,102053.00
2023-02-19T13:43:42.892Z,102058.31
2023-02-19T13:46:46.907Z,102061.81
2023-02-19T13:49:49.359Z,102062.63
2023-02-19T13:52:52.262Z,102063.63
2023-02-19T13:55:53.955Z,102073.47
2023-02-19T13:59:13.567Z,102064.72
2023-02-19T14:02:20.960Z,102070.13
2023-02-19T14:05:59.455Z,102078.69
2023-02-19T14:09:00.982Z,102071.69
2023-02-19T14:12:02.484Z,102068.34
2023-02-19T14:15:44.465Z,102072.97
2023-02-19T14:18:46.705Z,102062.56
2023-02-19T14:21:48.305Z,102066.19
2023-02-19T14:24:50.081Z,102064.44
2023-02-19T14:27:53.482Z,102042.47
2023-02-19T14:31:01.487Z,102032.97
2023-02-19T14:34:22.907Z,102026.19
2023-02-19T14:37:25.787Z,102016.63
2023-02-19T14:40:36.721Z,102018.59
2023-02-19T14:43:39.100Z,102011.63
2023-02-19T14:46:54.854Z,102002.00
2023-02-19T14:50:03.510Z,102002.19
2023-02-19T14:53:07.829Z,102000.44
2023-02-19T14:56:33.332Z,102002.28
2023-02-19T14:59:34.881Z,102004.16
2023-02-19T15:02:42.897Z,102002.41
2023-02-19T15:05:45.325Z,102014.88
2023-02-19T15:08:50.407Z,102002.50
2023-02-19T15:11:54.088Z,102007.09
2023-02-19T15:14:59.831Z,102012.44
2023-02-19T15:18:03.195Z,102018.63
2023-02-19T15:21:05.787Z,102019.53
2023-02-19T15:24:07.726Z,102010.91
2023-02-19T15:27:18.244Z,102011.94
2023-02-19T15:30:26.079Z,102029.75
2023-02-19T15:33:28.108Z,102039.63
2023-02-19T15:36:32.394Z,102037.16
2023-02-19T15:39:44.594Z,102032.91
2023-02-19T15:42:47.575Z,102029.59
2023-02-19T15:45:49.690Z,102029.84
2023-02-19T15:49:41.490Z,102042.44
2023-02-19T15:52:53.466Z,102038.25
2023-02-19T15:56:15.807Z,102043.81
2023-02-19T15:59:43.346Z,102041.34
2023-02-19T16:02:46.238Z,102048.56
2023-02-19T16:06:10.542Z,102039.00
2023-02-19T16:09:28.176Z,102044.50
2023-02-19T16:12:29.907Z,102040.22
2023-02-19T16:15:33.170Z,102032.38
2023-02-19T16:18:35.150Z,102047.56
2023-02-19T16:21:36.970Z,102043.22
2023-02-19T16:24:45.332Z,102053.03
2023-02-19T16:27:47.198Z,102054.94
2023-02-19T16:31:00.446Z,102062.09
2023-02-19T16:34:17.798Z,102067.53
2023-02-19T16:37:40.844Z,102063.19
2023-02-19T16:40:45.380Z,102060.81
2023-02-19T16:43:46.989Z,102069.78
2023-02-19T16:46:55.331Z,102074.53
2023-02-19T16:49:59.294Z,102068.66
2023-02-19T16:53:04.033Z,102081.16
2023-02-19T16:56:05.993Z,102081.34
2023-02-19T16:59:08.070Z,102074.44
2023-02-19T17:02:17.440Z,102075.53
2023-02-19T17:05:21.043Z,102058.06
2023-02-19T17:08:29.156Z,102068.78
2023-02-19T17:11:30.825Z,102076.03
2023-02-19T17:14:32.361Z,102080.53
2023-02-19T17:17:34.721Z,102077.16
2023-02-19T17:20:36.411Z,102084.31
2023-02-19T17:23:38.017Z,102080.03
2023-02-19T17:26:39.652Z,102075.81
2023-02-19T17:29:42.815Z,102080.28
2023-02-19T17:32:44.327Z,102087.53
2023-02-19T17:35:45.932Z,102087.59
2023-02-19T17:38:47.553Z,102100.91
2023-02-19T17:41:50.408Z,102100.16
2023-02-19T17:44:53.358Z,102091.47
2023-02-19T17:47:54.920Z,102097.78
2023-02-19T17:50:56.652Z,102097.84
2023-02-19T17:53:58.274Z,102105.84
2023-02-19T17:56:59.810Z,102101.56
2023-02-19T18:00:01.598Z,102104.25
2023-02-19T18:03:04.371Z,102104.28
2023-02-19T18:06:06.187Z,102112.25
2023-02-19T18:09:07.722Z,102109.66
2023-02-19T18:12:09.408Z,102110.56
2023-02-19T18:15:16.411Z,102106.19
2023-02-19T18:18:17.948Z,102108.84
2023-02-19T18:21:19.525Z,102106.22
2023-02-19T18:24:21.510Z,102095.63
2023-02-19T18:27:23.627Z,102094.81
2023-02-19T18:30:25.615Z,102093.00
2023-02-19T18:33:27.323Z,102087.75
2023-02-19T18:36:29.006Z,102080.78
2023-02-19T18:39:30.562Z,102086.06
2023-02-19T18:42:32.090Z,102092.38
2023-02-19T18:45:37.181Z,102080.84
2023-02-19T18:48:39.212Z,102083.50
2023-02-19T18:51:40.771Z,102076.44
2023-02-19T18:54:43.362Z,102077.41
2023-02-19T18:57:46.133Z,102080.97
2023-02-19T19:00:47.687Z,102070.41
2023-02-19T19:03:49.271Z,102082.81
2023-02-19T19:06:50.864Z,102086.31
2023-02-19T19:09:52.478Z,102078.31
2023-02-19T19:12:54.548Z,102069.72
2023-02-19T19:15:56.387Z,102071.34
2023-02-19T19:18:57.971Z,102080.22
2023-02-19T19:21:59.510Z,102071.44
2023-02-19T19:25:01.047Z,102069.72
2023-02-19T19:28:02.630Z,102067.97
2023-02-19T19:31:04.956Z,102060.03
2023-02-19T19:34:06.548Z,102056.56
2023-02-19T19:37:08.274Z,102061.03
2023-02-19T19:40:11.008Z,102055.91
2023-02-19T19:43:12.682Z,102058.69
2023-02-19T19:46:19.058Z,102057.06
2023-02-19T19:49:22.209Z,102059.84
2023-02-19T19:52:23.786Z,102049.47
2023-02-19T19:55:25.367Z,102050.31
2023-02-19T19:58:26.979Z,102035.41
2023-02-19T20:01:28.538Z,102031.06
2023-02-19T20:04:31.135Z,102040.81
2023-02-19T20:07:32.772Z,102044.38
2023-02-19T20:10:34.388Z,102036.53
2023-02-19T20:13:35.972Z,102037.47
2023-02-19T20:16:37.513Z,102033.97
2023-02-19T20:19:39.089Z,102024.22
2023-02-19T20:22:40.693Z,102032.13
2023-02-19T20:25:42.435Z,102039.19
2023-02-19T20:28:46.489Z,102045.44
2023-02-19T20:31:50.640Z,102039.38
2023-02-19T20:34:52.424Z,102036.75
2023-02-19T20:37:54.583Z,102040.31
2023-02-19T20:40:56.537Z,102031.59
2023-02-19T20:43:58.126Z,102022.84
2023-02-19T20:47:00.660Z,102029.00
2023-02-19T20:50:02.223Z,102036.94
2023-02-19T20:53:03.796Z,102030.91
2023-02-19T20:56:06.259Z,102029.28
2023-02-19T20:59:08.396Z,102031.09
2023-02-19T21:02:23.755Z,102026.75
2023-02-19T21:05:25.336Z,102031.25
2023-02-19T21:08:27.032Z,102033.03
2023-02-19T21:11:28.595Z,102026.00
2023-02-19T21:14:30.131Z,102026.94
2023-02-19T21:17:32.018Z,102029.72
2023-02-19T21:20:33.737Z,102024.50
2023-02-19T21:23:35.289Z,102008.72
2023-02-19T21:26:39.076Z,102007.84
2023-02-19T21:29:40.610Z,101989.19
2023-02-19T21:32:42.128Z,101985.50
2023-02-19T21:35:43.681Z,101974.03
2023-02-19T21:38:45.259Z,101968.78
2023-02-19T21:41:47.352Z,101972.31
2023-02-19T21:44:49.014Z,101959.19
2023-02-19T21:47:55.034Z,101955.72
2023-02-19T21:50:56.602Z,101969.81
2023-02-19T21:53:59.042Z,101969.88
2023-02-19T21:57:03.293Z,101984.78
2023-02-19T22:00:06.160Z,101986.56
2023-02-19T22:03:14.272Z,101991.94
2023-02-19T22:06:16.132Z,101988.41
2023-02-19T22:09:17.695Z,101992.81
2023-02-19T22:12:19.574Z,101993.69
2023-02-19T22:15:21.107Z,101998.97
2023-02-19T22:18:22.706Z,102020.16
2023-02-19T22:21:26.716Z,102012.22
2023-02-19T22:24:28.362Z,102000.88
2023-02-19T22:27:29.939Z,102004.41
2023-02-19T22:30:31.541Z,102009.69
2023-02-19T22:33:33.129Z,102007.91
2023-02-19T22:36:37.275Z,102002.69
2023-02-19T22:39:38.854Z,102007.97
2023-02-19T22:42:40.723Z,102001.81
2023-02-19T22:45:43.109Z,101988.66
2023-02-19T22:48:45.170Z,101987.78
2023-02-19T22:52:02.322Z,101987.75
2023-02-19T22:55:04.103Z,101992.13
2023-02-19T22:58:05.612Z,102000.03
2023-02-19T23:01:07.438Z,101994.78
2023-02-19T23:04:09.213Z,101995.72
2023-02-19T23:07:10.807Z,101981.63
2023-02-19T23:10:13.723Z,101974.63
2023-02-19T23:13:15.601Z,101971.09
2023-02-19T23:16:17.584Z,101970.00
2023-02-19T23:19:19.209Z,101971.75
2023-02-19T23:22:20.873Z,101963.78
2023-02-19T23:25:22.670Z,101948.00
2023-02-19T23:28:24.205Z,101937.47
2023-02-19T23:31:26.944Z,101924.31
2023-02-19T23:34:28.547Z,101913.81
2023-02-19T23:37:30.132Z,101910.31
2023-02-19T23:40:31.663Z,101901.56
2023-02-19T23:43:33.474Z,101905.09
2023-02-19T23:46:35.112Z,101898.94
2023-02-19T23:49:36.652Z,101889.31
2023-02-19T23:52:38.208Z,101877.88
2023-02-19T23:55:39.754Z,101874.38
2023-02-19T23:58:41.287Z,101877.91
